Callender, IA

10:17 AM CST on January 28, 2015 (GMT -0600)
Boone Municipal | Change Station
CLOSE
Current Station
Airport
Location: Boone,
Elevation: 1161 ft
Nearby Weather Stations

Elev 1161 ft 42.05 °N, 93.85 °W | Updated 22 minutes ago

Fog
Fog
30 °F
Feels Like 18 °F
N
20
Wind Variable Wind from SE
Gusts 28 mph

Today
High -- | Low -- °F
--% Chance of Precip.
Yesterday
High -- | Low -- °F
Precip. -- in
7:34 AM 5:25 PM
Waxing Gibbous, 66% visible
Pressure 29.90 in
Visibility 2.5 miles
Clouds Overcast 600 ft
Windchill 18 °F
Dew Point 30 °F
Humidity 100%
Rainfall 0.00 in
Snow Depth Not available.
UV 0 out of 12
Pollen 2.10 out of 12
Air Quality Not available.
Flu Activity Not available.
METAR KBNW 281555Z AUTO 14017G24KT 2 1/2SM BR OVC006 M01/M01 A2990 RMK AO2

More Conditions Fewer Conditions

Pressure 29.90 in
Visibility 2.5 miles
Clouds Overcast 600 ft
Windchill 18 °F
Dew Point 30 °F
Humidity 100%
Rainfall 0.00 in
Snow Depth Not available.
UV 0 out of 12
Pollen 2.10 out of 12
Air Quality Not available.
Flu Activity Not available.
METAR KBNW 281555Z AUTO 14017G24KT 2 1/2SM BR OVC006 M01/M01 A2990 RMK AO2

More Conditions Fewer Conditions

10-Day Weather Forecast

Almanac

Astronomy

Jan. 28, 2015 Rise Set
Actual Time
Civil Twilight
Nautical Twilight
Astronomical Twilight
Moon
Length of Visible Light
Length of Day
Tomorrow will be .
, % of the Moon is Illuminated

Today's Extremes

State Highs State Lows

Community

WunderPhotos

Upload Photos

1,791,189 photos uploaded!

WunderBlogs® & News

Nearby

Air Quality

  Air Quality AQ Index Pollutant
Not available.

Snow Depth

Station Depth Elevation

Earthquake Activity

City Distance Mag. Time & Date
Minimum magnitude displayed is 2.5.

Coastal Water Temperatures

Place Temperature

Nearby Weather Stations